Januaria, Brazil
Current Conditions -  °F | °C
As of 8:00 AM on Thursday 23 Oct 2014 (Local Time) from SBMK Reporting Station
Broken Clouds Broken Clouds  
Wind Chill: 70°   Ceiling: 10000
Heat Index: 70°   Visibility: 6mi
Dew Point: 59°   Wind: 9mph
Humidity: 68%   Direction: 80°E
Pressure: 30.15"   Gusts: NA
Location:  15.48°S, 44.37°W
Report Text: SBMK 231000Z 08008KT 9999 FEW030 BKN100 21/15 Q1021
Loading
Personal Weather Stations






























Interactive Weather Map
Tropical Storm Tracking
New forecast layout! Learn more

10-Day Weather Forecast

Advertisements
Track Severe Weather on mobile